createdAt,value
2019-04-29T00:03:34.620Z,99.90
2019-04-29T00:06:02.862Z,99.90
2019-04-29T00:08:31.118Z,99.90
2019-04-29T00:10:59.352Z,99.90
2019-04-29T00:13:27.616Z,99.90
2019-04-29T00:19:01.580Z,99.90
2019-04-29T00:21:30.397Z,99.90
2019-04-29T00:24:03.853Z,99.90
2019-04-29T00:26:28.684Z,99.90
2019-04-29T00:28:56.932Z,99.90
2019-04-29T00:31:25.163Z,99.90
2019-04-29T00:33:53.424Z,99.90
2019-04-29T00:36:23.301Z,99.90
2019-04-29T00:39:09.366Z,99.90
2019-04-29T00:41:48.259Z,99.90
2019-04-29T00:44:17.688Z,99.90
2019-04-29T00:46:46.453Z,99.90
2019-04-29T00:49:14.708Z,99.90
2019-04-29T00:51:42.954Z,99.90
2019-04-29T00:54:15.305Z,99.90
2019-04-29T00:56:43.549Z,99.90
2019-04-29T00:59:11.792Z,99.90
2019-04-29T01:01:40.032Z,99.90
2019-04-29T01:04:08.276Z,99.90
2019-04-29T01:06:36.519Z,99.90
2019-04-29T01:09:07.647Z,99.90
2019-04-29T01:11:35.894Z,99.90
2019-04-29T01:14:04.144Z,99.90
2019-04-29T01:16:32.392Z,99.90
2019-04-29T01:19:03.722Z,99.90
2019-04-29T01:21:30.593Z,99.90
2019-04-29T01:23:58.840Z,99.90
2019-04-29T01:26:44.815Z,99.90
2019-04-29T01:29:14.717Z,99.90
2019-04-29T01:31:42.960Z,99.90
2019-04-29T01:34:18.828Z,99.90
2019-04-29T01:36:47.741Z,99.90
2019-04-29T01:39:15.981Z,99.90
2019-04-29T01:41:54.629Z,99.90
2019-04-29T01:44:24.592Z,99.90
2019-04-29T01:46:52.824Z,99.90
2019-04-29T01:49:21.099Z,99.90
2019-04-29T01:51:49.397Z,99.90
2019-04-29T01:54:17.652Z,99.90
2019-04-29T01:56:45.896Z,99.90
2019-04-29T01:59:14.148Z,99.90
2019-04-29T02:01:42.391Z,99.90
2019-04-29T02:04:30.077Z,99.90
2019-04-29T02:06:58.318Z,99.90
2019-04-29T02:09:31.168Z,99.90
2019-04-29T02:11:59.694Z,99.90
2019-04-29T02:14:27.929Z,99.90
2019-04-29T02:16:56.175Z,99.90
2019-04-29T02:19:24.436Z,99.90
2019-04-29T02:22:10.782Z,99.90
2019-04-29T02:24:43.573Z,99.90
2019-04-29T02:27:11.814Z,99.90
2019-04-29T02:29:40.064Z,99.90
2019-04-29T02:32:08.307Z,99.90
2019-04-29T02:34:36.565Z,99.90
2019-04-29T02:37:06.445Z,99.90
2019-04-29T02:39:39.113Z,99.90
2019-04-29T02:42:25.205Z,99.90
2019-04-29T02:44:54.381Z,99.90
2019-04-29T02:47:22.616Z,99.90
2019-04-29T02:49:50.873Z,99.90
2019-04-29T02:52:19.122Z,99.90
2019-04-29T02:54:47.946Z,99.90
2019-04-29T02:57:17.830Z,99.90
2019-04-29T02:59:50.370Z,99.90
2019-04-29T03:02:35.217Z,99.90
2019-04-29T03:05:13.466Z,99.90
2019-04-29T03:07:41.699Z,99.90
2019-04-29T03:10:09.949Z,99.90
2019-04-29T03:12:38.197Z,99.90
2019-04-29T03:15:06.446Z,99.90
2019-04-29T03:17:34.702Z,99.90
2019-04-29T03:20:13.708Z,99.90
2019-04-29T03:22:46.296Z,99.90
2019-04-29T03:25:14.545Z,99.90
2019-04-29T03:27:42.858Z,99.90
2019-04-29T03:30:11.113Z,99.90
2019-04-29T03:32:39.354Z,99.90
2019-04-29T03:35:07.677Z,99.90
2019-04-29T03:37:35.922Z,99.90
2019-04-29T03:40:04.723Z,99.90
2019-04-29T03:42:32.954Z,99.90
2019-04-29T03:45:01.201Z,99.90
2019-04-29T03:47:29.444Z,99.90
2019-04-29T03:49:57.702Z,99.90
2019-04-29T03:52:26.017Z,99.90
2019-04-29T03:54:54.348Z,99.90
2019-04-29T03:57:22.580Z,99.90
2019-04-29T03:59:50.837Z,99.90
2019-04-29T04:02:20.717Z,99.90
2019-04-29T04:04:53.523Z,99.90
2019-04-29T04:07:39.894Z,99.90
2019-04-29T04:10:08.694Z,99.90
2019-04-29T04:12:36.930Z,99.90
2019-04-29T04:15:09.117Z,99.90
2019-04-29T04:17:55.450Z,99.90
2019-04-29T04:20:24.371Z,99.90
2019-04-29T04:22:52.791Z,99.90
2019-04-29T04:25:21.048Z,99.90
2019-04-29T04:27:49.305Z,99.90
2019-04-29T04:30:18.781Z,99.90
2019-04-29T04:32:47.096Z,99.90
2019-04-29T04:35:15.416Z,99.90
2019-04-29T04:37:43.661Z,99.90
2019-04-29T04:40:13.553Z,99.90
2019-04-29T04:42:41.790Z,99.90
2019-04-29T04:45:10.044Z,99.90
2019-04-29T04:47:38.285Z,92.20
2019-04-29T04:50:06.537Z,88.40
2019-04-29T04:52:34.865Z,81.50
2019-04-29T04:55:03.658Z,84.10
2019-04-29T04:57:31.896Z,85.50
2019-04-29T05:00:00.162Z,84.90
2019-04-29T05:02:28.388Z,83.00
2019-04-29T05:04:56.644Z,81.50
2019-04-29T05:07:24.890Z,79.90
2019-04-29T05:09:53.128Z,79.10
2019-04-29T05:12:21.376Z,73.70
2019-04-29T05:14:49.621Z,67.80
2019-04-29T05:17:17.875Z,66.80
2019-04-29T05:19:46.116Z,63.30
2019-04-29T05:22:14.382Z,60.50
2019-04-29T05:24:42.616Z,60.10
2019-04-29T05:27:10.877Z,57.60
2019-04-29T05:29:39.122Z,57.00
2019-04-29T05:32:07.380Z,54.80
2019-04-29T05:34:37.275Z,52.10
2019-04-29T05:37:07.233Z,53.00
2019-04-29T05:39:42.897Z,49.20
2019-04-29T05:42:16.245Z,47.80
2019-04-29T05:44:51.711Z,50.00
2019-04-29T05:47:21.616Z,52.60
2019-04-29T05:50:11.801Z,53.20
2019-04-29T05:52:42.449Z,56.70
2019-04-29T05:55:13.859Z,60.60
2019-04-29T05:57:40.673Z,62.70
2019-04-29T06:00:08.912Z,65.50
2019-04-29T06:02:38.881Z,67.70
2019-04-29T06:05:07.650Z,68.20
2019-04-29T06:07:35.897Z,69.40
2019-04-29T06:10:06.276Z,71.00
2019-04-29T06:12:34.524Z,72.30
2019-04-29T06:15:02.837Z,74.60
2019-04-29T06:17:31.093Z,73.90
2019-04-29T06:19:59.340Z,74.40
2019-04-29T06:22:27.596Z,72.70
2019-04-29T06:24:55.840Z,71.00
2019-04-29T06:27:24.100Z,67.40
2019-04-29T06:29:52.345Z,62.00
2019-04-29T06:32:24.991Z,58.20
2019-04-29T06:34:50.568Z,55.10
2019-04-29T06:37:18.825Z,52.90
2019-04-29T06:39:47.072Z,50.80
2019-04-29T06:42:15.624Z,52.40
2019-04-29T06:44:48.950Z,53.20
2019-04-29T06:47:17.004Z,50.30
2019-04-29T06:49:45.903Z,48.20
2019-04-29T06:52:14.160Z,47.20
2019-04-29T06:54:42.409Z,46.40
2019-04-29T06:57:10.670Z,45.40
2019-04-29T06:59:42.817Z,47.00
2019-04-29T07:02:09.384Z,47.50
2019-04-29T07:04:39.727Z,48.00
2019-04-29T07:07:08.128Z,47.80
2019-04-29T07:09:36.385Z,49.20
2019-04-29T07:12:08.105Z,47.40
2019-04-29T07:14:38.310Z,46.90
2019-04-29T07:17:05.750Z,46.30
2019-04-29T07:19:34.640Z,45.60
2019-04-29T07:22:02.890Z,45.60
2019-04-29T07:24:31.138Z,44.70
2019-04-29T07:27:02.728Z,43.10
2019-04-29T07:29:32.587Z,44.30
2019-04-29T07:31:59.352Z,45.60
2019-04-29T07:34:28.940Z,47.80
2019-04-29T07:36:59.403Z,49.90
2019-04-29T07:39:31.767Z,51.30
2019-04-29T07:41:57.607Z,51.80
2019-04-29T07:44:32.904Z,49.30
2019-04-29T07:47:01.821Z,49.00
2019-04-29T07:49:28.033Z,49.10
2019-04-29T07:51:56.305Z,48.10
2019-04-29T07:54:24.557Z,44.60
2019-04-29T07:56:52.808Z,43.80
2019-04-29T07:59:21.141Z,44.20
2019-04-29T08:01:49.388Z,46.50
2019-04-29T08:04:17.663Z,47.50
2019-04-29T08:06:45.918Z,47.80
2019-04-29T08:09:14.187Z,48.70
2019-04-29T08:11:42.436Z,49.00
2019-04-29T08:14:11.265Z,49.10
2019-04-29T08:16:39.516Z,48.30
2019-04-29T08:19:07.789Z,46.20
2019-04-29T08:21:36.030Z,46.50
2019-04-29T08:24:04.458Z,45.60
2019-04-29T08:26:33.591Z,46.80
2019-04-29T08:29:02.701Z,46.00
2019-04-29T08:31:30.952Z,49.20
2019-04-29T08:33:59.221Z,49.20
2019-04-29T08:36:27.474Z,49.60
2019-04-29T08:39:08.011Z,51.10
2019-04-29T08:41:28.667Z,51.10
2019-04-29T08:44:15.285Z,51.80
2019-04-29T08:46:34.333Z,52.30
2019-04-29T08:49:06.151Z,53.20
2019-04-29T08:51:32.585Z,54.00
2019-04-29T08:54:00.845Z,54.30
2019-04-29T08:56:29.098Z,54.50
2019-04-29T08:58:57.368Z,53.40
2019-04-29T09:01:29.411Z,54.30
2019-04-29T09:03:58.031Z,56.40
2019-04-29T09:06:27.722Z,57.70
2019-04-29T09:08:59.425Z,57.50
2019-04-29T09:11:25.512Z,57.00
2019-04-29T09:13:53.776Z,56.80
2019-04-29T09:16:22.023Z,57.60
2019-04-29T09:18:50.285Z,58.10
2019-04-29T09:21:18.532Z,56.00
2019-04-29T09:23:46.793Z,55.50
2019-04-29T09:26:16.685Z,56.90
2019-04-29T09:28:44.950Z,57.00
2019-04-29T09:31:13.205Z,56.60
2019-04-29T09:33:44.131Z,57.10
2019-04-29T09:36:13.844Z,56.60
2019-04-29T09:38:41.420Z,57.50
2019-04-29T09:41:11.304Z,58.00
2019-04-29T09:44:04.013Z,57.00
2019-04-29T09:46:34.437Z,56.60
2019-04-29T09:49:01.155Z,56.60
2019-04-29T09:51:29.752Z,56.10
2019-04-29T09:53:58.244Z,56.10
2019-04-29T09:56:26.501Z,56.10
2019-04-29T09:58:56.405Z,55.00
2019-04-29T10:01:32.172Z,55.90
2019-04-29T10:04:02.079Z,55.40
2019-04-29T10:06:34.661Z,54.80
2019-04-29T10:09:02.997Z,56.20
2019-04-29T10:11:31.248Z,54.10
2019-04-29T10:13:59.508Z,55.30
2019-04-29T10:16:46.940Z,54.80
2019-04-29T10:22:02.477Z,54.10
2019-04-29T10:24:30.733Z,53.40
2019-04-29T10:26:59.008Z,52.80
2019-04-29T10:29:28.959Z,52.80
2019-04-29T10:31:57.572Z,53.90
2019-04-29T10:34:26.870Z,53.80
2019-04-29T10:36:55.809Z,55.30
2019-04-29T10:39:42.447Z,55.00
2019-04-29T10:42:12.756Z,54.50
2019-04-29T10:44:42.656Z,52.40
2019-04-29T10:47:26.053Z,53.40
2019-04-29T10:52:39.723Z,54.90
2019-04-29T10:55:09.109Z,55.60
2019-04-29T10:57:37.356Z,58.10
2019-04-29T11:00:17.014Z,58.10
2019-04-29T11:02:44.839Z,58.00
2019-04-29T11:07:52.679Z,57.90
2019-04-29T11:10:28.117Z,57.30
2019-04-29T11:12:56.433Z,57.10
2019-04-29T11:15:32.396Z,58.20
2019-04-29T11:18:00.624Z,57.30
2019-04-29T11:20:28.660Z,57.00
2019-04-29T11:22:58.557Z,56.80
2019-04-29T11:25:31.392Z,56.60
2019-04-29T11:28:00.416Z,57.20
2019-04-29T11:30:30.315Z,58.20
2019-04-29T11:33:12.429Z,58.00
2019-04-29T11:35:51.277Z,59.60
2019-04-29T11:38:19.531Z,62.80
2019-04-29T11:40:48.629Z,62.80
2019-04-29T11:43:18.053Z,62.40
2019-04-29T11:45:46.781Z,63.80
2019-04-29T11:48:15.027Z,63.90
2019-04-29T11:50:54.670Z,65.20
2019-04-29T11:53:20.545Z,66.40
2019-04-29T11:55:52.619Z,67.50
2019-04-29T11:58:36.573Z,68.00
2019-04-29T12:01:15.437Z,68.00
2019-04-29T12:03:51.325Z,68.10
2019-04-29T12:06:20.836Z,68.70
2019-04-29T12:08:52.752Z,70.30
2019-04-29T12:11:18.463Z,70.20
2019-04-29T12:14:04.747Z,69.40
2019-04-29T12:16:54.782Z,70.20
2019-04-29T12:19:23.793Z,70.00
2019-04-29T12:21:52.053Z,69.70
2019-04-29T12:24:20.568Z,70.40
2019-04-29T12:26:48.832Z,71.10
2019-04-29T12:29:18.183Z,70.90
2019-04-29T12:31:54.125Z,71.90
2019-04-29T12:34:40.105Z,72.90
2019-04-29T12:37:09.992Z,73.80
2019-04-29T12:39:51.827Z,72.90
2019-04-29T12:42:30.947Z,73.60
2019-04-29T12:45:00.834Z,75.70
2019-04-29T12:47:33.681Z,75.10
2019-04-29T12:50:01.943Z,75.90
2019-04-29T12:52:30.196Z,76.90
2019-04-29T12:55:04.121Z,78.80
2019-04-29T12:57:28.451Z,78.70
2019-04-29T12:59:56.746Z,78.50
2019-04-29T13:02:41.783Z,79.40
2019-04-29T13:05:11.940Z,79.90
2019-04-29T13:07:44.250Z,80.90
2019-04-29T13:10:14.145Z,81.70
2019-04-29T13:12:44.398Z,80.50
2019-04-29T13:15:14.689Z,81.40
2019-04-29T13:18:03.541Z,83.30
2019-04-29T13:20:26.787Z,81.70
2019-04-29T13:23:01.144Z,83.20
2019-04-29T13:25:26.797Z,83.20
2019-04-29T13:27:56.074Z,83.50
2019-04-29T13:30:24.976Z,83.30
2019-04-29T13:32:53.296Z,83.20
2019-04-29T13:35:21.562Z,82.70
2019-04-29T13:37:49.880Z,83.10
2019-04-29T13:40:18.126Z,83.20
2019-04-29T13:42:49.252Z,84.10
2019-04-29T13:45:24.881Z,83.90
2019-04-29T13:48:09.164Z,83.40
2019-04-29T13:50:45.084Z,84.70
2019-04-29T13:53:16.712Z,83.60
2019-04-29T13:55:48.293Z,83.60
2019-04-29T13:58:13.306Z,83.90
2019-04-29T14:00:43.213Z,84.50
2019-04-29T14:03:13.158Z,84.40
2019-04-29T14:05:41.810Z,85.50
2019-04-29T14:08:10.410Z,85.70
2019-04-29T14:10:38.664Z,85.80
2019-04-29T14:15:40.386Z,86.10
2019-04-29T14:18:11.737Z,86.20
2019-04-29T14:18:53.558Z,85.60
2019-04-29T14:20:36.856Z,86.80
2019-04-29T14:23:05.185Z,85.70
2019-04-29T14:25:33.442Z,86.20
2019-04-29T14:28:01.712Z,88.00
2019-04-29T14:30:38.675Z,88.00
2019-04-29T14:33:02.959Z,88.50
2019-04-29T14:35:43.746Z,89.20
2019-04-29T14:38:12.028Z,89.40
2019-04-29T14:40:42.744Z,90.80
2019-04-29T14:43:31.618Z,89.70
2019-04-29T14:46:15.981Z,90.50
2019-04-29T14:48:46.400Z,91.10
2019-04-29T14:51:14.657Z,91.50
2019-04-29T14:53:55.658Z,92.40
2019-04-29T14:56:15.692Z,90.90
2019-04-29T14:58:42.943Z,92.40
2019-04-29T15:01:19.018Z,92.30
2019-04-29T15:03:54.756Z,93.10
2019-04-29T15:06:23.091Z,92.90
2019-04-29T15:08:51.473Z,93.10
2019-04-29T15:11:31.599Z,92.40
2019-04-29T15:13:53.025Z,92.70
2019-04-29T15:16:22.968Z,92.70
2019-04-29T15:18:52.867Z,93.00
2019-04-29T15:21:32.832Z,93.80
2019-04-29T15:23:58.668Z,93.90
2019-04-29T15:26:26.918Z,94.40
2019-04-29T15:28:55.180Z,94.50
2019-04-29T15:31:24.101Z,95.40
2019-04-29T15:33:52.543Z,94.90
2019-04-29T15:36:20.783Z,95.10
2019-04-29T15:39:08.094Z,95.00
2019-04-29T15:41:19.083Z,95.10
2019-04-29T15:43:48.344Z,95.20
2019-04-29T15:46:16.988Z,94.80
2019-04-29T15:48:45.263Z,95.10
2019-04-29T15:51:13.922Z,95.20
2019-04-29T15:53:43.344Z,95.80
2019-04-29T15:56:27.749Z,95.90
2019-04-29T15:58:41.670Z,95.70
2019-04-29T16:01:14.821Z,95.80
2019-04-29T16:03:40.312Z,95.80
2019-04-29T16:06:22.100Z,95.50
2019-04-29T16:08:58.965Z,95.50
2019-04-29T16:11:29.340Z,95.50
2019-04-29T16:14:08.723Z,95.20
2019-04-29T16:16:28.626Z,96.00
2019-04-29T16:19:07.263Z,95.20
2019-04-29T16:21:32.171Z,95.30
2019-04-29T16:23:57.696Z,96.20
2019-04-29T16:26:30.197Z,96.50
2019-04-29T16:28:56.349Z,96.10
2019-04-29T16:31:24.593Z,96.00
2019-04-29T16:33:54.737Z,95.70
2019-04-29T16:36:23.629Z,95.70
2019-04-29T16:38:53.507Z,95.10
2019-04-29T16:44:35.414Z,96.30
2019-04-29T16:46:56.084Z,96.50
2019-04-29T16:49:24.354Z,96.00
2019-04-29T16:51:53.474Z,95.80
2019-04-29T16:54:28.177Z,96.20
2019-04-29T16:56:52.204Z,96.20
2019-04-29T16:59:20.542Z,95.90
2019-04-29T17:01:50.055Z,96.40
2019-04-29T17:04:18.304Z,96.40
2019-04-29T17:07:10.776Z,96.20
2019-04-29T17:12:06.733Z,96.80
2019-04-29T17:15:01.091Z,96.50
2019-04-29T17:17:06.588Z,96.90
2019-04-29T17:19:34.853Z,97.00
2019-04-29T17:22:24.209Z,97.20
2019-04-29T17:24:33.072Z,97.10
2019-04-29T17:27:03.147Z,96.70
2019-04-29T17:29:48.662Z,96.30
2019-04-29T17:32:17.130Z,96.70
2019-04-29T17:35:20.543Z,96.80
2019-04-29T17:37:17.636Z,96.20
2019-04-29T17:39:45.993Z,96.50
2019-04-29T17:42:14.280Z,95.80
2019-04-29T17:44:46.449Z,96.30
2019-04-29T17:47:16.396Z,96.60
2019-04-29T17:49:49.480Z,96.70
2019-04-29T17:52:22.761Z,96.60
2019-04-29T17:54:58.844Z,96.50
2019-04-29T17:57:31.735Z,96.60
2019-04-29T18:00:08.662Z,96.70
2019-04-29T18:02:38.976Z,96.50
2019-04-29T18:07:51.999Z,97.00
2019-04-29T18:10:29.559Z,97.30
2019-04-29T18:12:58.269Z,97.90
2019-04-29T18:15:28.174Z,97.90
2019-04-29T18:18:00.293Z,97.90
2019-04-29T18:20:47.094Z,98.30
2019-04-29T18:23:31.505Z,98.20
2019-04-29T18:26:07.599Z,97.60
2019-04-29T18:28:37.426Z,97.60
2019-04-29T18:31:07.717Z,97.70
2019-04-29T18:33:35.965Z,97.90
2019-04-29T18:36:06.569Z,97.70
2019-04-29T18:38:34.999Z,97.50
2019-04-29T18:41:03.437Z,97.30
2019-04-29T18:43:31.689Z,97.30
2019-04-29T18:45:59.950Z,97.20
2019-04-29T18:48:28.197Z,97.50
2019-04-29T18:50:57.156Z,97.40
2019-04-29T18:53:25.769Z,97.40
2019-04-29T18:55:55.100Z,97.70
2019-04-29T18:58:25.005Z,97.70
2019-04-29T19:00:55.745Z,98.10
2019-04-29T19:03:29.721Z,98.00
2019-04-29T19:06:03.131Z,98.10
2019-04-29T19:08:31.776Z,98.10
2019-04-29T19:10:59.306Z,98.30
2019-04-29T19:13:30.591Z,98.10
2019-04-29T19:16:09.047Z,98.10
2019-04-29T19:18:27.536Z,97.90
2019-04-29T19:20:56.989Z,98.10
2019-04-29T19:23:29.442Z,98.30
2019-04-29T19:25:55.611Z,98.20
2019-04-29T19:28:30.067Z,98.40
2019-04-29T19:30:56.131Z,98.10
2019-04-29T19:33:25.236Z,98.10
2019-04-29T19:35:55.271Z,98.00
2019-04-29T19:38:25.196Z,97.90
2019-04-29T19:40:53.801Z,97.80
2019-04-29T19:43:22.044Z,97.70
2019-04-29T19:45:50.497Z,98.10
2019-04-29T19:48:22.387Z,98.10
2019-04-29T19:50:50.070Z,98.00
2019-04-29T19:53:18.898Z,98.10
2019-04-29T19:55:47.198Z,97.90
2019-04-29T19:58:16.019Z,97.60
2019-04-29T20:00:47.039Z,97.80
2019-04-29T20:03:21.225Z,97.90
2019-04-29T20:05:49.832Z,98.00
2019-04-29T20:08:37.439Z,97.90
2019-04-29T20:10:51.532Z,98.10
2019-04-29T20:13:19.111Z,98.10
2019-04-29T20:16:12.746Z,98.30
2019-04-29T20:18:40.464Z,98.50
2019-04-29T20:21:09.533Z,98.70
2019-04-29T20:23:39.533Z,98.80
2019-04-29T20:26:15.697Z,98.80
2019-04-29T20:28:38.085Z,99.00
2019-04-29T20:31:16.254Z,99.40
2019-04-29T20:33:36.583Z,99.70
2019-04-29T20:36:06.155Z,99.90
2019-04-29T20:38:38.663Z,99.90
2019-04-29T20:41:07.668Z,99.90
2019-04-29T20:43:35.832Z,99.90
2019-04-29T20:46:04.771Z,99.90
2019-04-29T20:48:36.823Z,99.90
2019-04-29T20:51:11.441Z,99.90
2019-04-29T20:56:31.316Z,99.90
2019-04-29T20:59:02.092Z,99.90
2019-04-29T21:01:30.102Z,99.90
2019-04-29T21:03:58.440Z,99.90
2019-04-29T21:06:26.828Z,99.90
2019-04-29T21:08:55.230Z,99.90
2019-04-29T21:11:25.755Z,99.90
2019-04-29T21:13:57.116Z,99.90
2019-04-29T21:16:30.710Z,99.90
2019-04-29T21:18:58.801Z,99.90
2019-04-29T21:21:27.071Z,99.90
2019-04-29T21:23:55.683Z,99.90
2019-04-29T21:26:26.176Z,99.90
2019-04-29T21:28:55.562Z,99.90
2019-04-29T21:31:25.521Z,99.90
2019-04-29T21:33:57.453Z,99.90
2019-04-29T21:36:26.600Z,99.90
2019-04-29T21:39:01.760Z,99.90
2019-04-29T21:41:28.862Z,99.90
2019-04-29T21:43:57.280Z,99.90
2019-04-29T21:46:29.426Z,99.90
2019-04-29T21:48:55.715Z,99.90
2019-04-29T21:51:25.545Z,99.90
2019-04-29T21:53:55.878Z,99.90
2019-04-29T21:56:25.694Z,99.90
2019-04-29T21:58:53.939Z,99.90
2019-04-29T22:01:22.193Z,99.90
2019-04-29T22:03:50.448Z,99.90
2019-04-29T22:06:18.696Z,99.90
2019-04-29T22:08:46.957Z,99.90
2019-04-29T22:11:15.538Z,99.90
2019-04-29T22:13:45.353Z,99.90
2019-04-29T22:16:15.769Z,99.90
2019-04-29T22:18:44.633Z,99.90
2019-04-29T22:21:16.975Z,99.90
2019-04-29T22:23:44.312Z,99.90
2019-04-29T22:26:16.327Z,99.90
2019-04-29T22:28:43.494Z,99.90
2019-04-29T22:31:11.762Z,99.90
2019-04-29T22:33:40.020Z,99.90
2019-04-29T22:36:10.260Z,99.90
2019-04-29T22:38:38.234Z,99.90
2019-04-29T22:41:11.997Z,99.90
2019-04-29T22:43:45.908Z,99.90
2019-04-29T22:46:17.219Z,99.90
2019-04-29T22:48:45.424Z,99.90
2019-04-29T22:51:18.592Z,99.90
2019-04-29T22:53:47.102Z,99.90
2019-04-29T22:56:15.922Z,99.90
2019-04-29T22:58:45.595Z,99.90
2019-04-29T23:01:15.562Z,99.90
2019-04-29T23:03:45.132Z,99.90
2019-04-29T23:06:15.579Z,99.90
2019-04-29T23:08:44.969Z,99.90
2019-04-29T23:11:13.545Z,99.90
2019-04-29T23:13:41.809Z,99.90
2019-04-29T23:16:10.052Z,99.90
2019-04-29T23:18:42.148Z,99.90
2019-04-29T23:21:19.120Z,99.90
2019-04-29T23:23:49.018Z,99.90
2019-04-29T23:26:17.260Z,99.90
2019-04-29T23:28:45.831Z,99.90
2019-04-29T23:31:14.156Z,99.90
2019-04-29T23:33:42.416Z,99.90
2019-04-29T23:36:14.122Z,99.90
2019-04-29T23:38:42.739Z,99.90
2019-04-29T23:41:10.594Z,99.90
2019-04-29T23:43:38.849Z,99.90
2019-04-29T23:46:07.089Z,99.90
2019-04-29T23:48:39.415Z,99.90
2019-04-29T23:51:05.487Z,99.90
2019-04-29T23:53:35.126Z,99.90
2019-04-29T23:56:05.567Z,99.90
2019-04-29T23:58:51.761Z,99.90
